createdAt,value
2022-11-28T00:01:36.221Z,26.99
2022-11-28T00:04:06.989Z,26.78
2022-11-28T00:06:38.546Z,26.99
2022-11-28T00:09:07.139Z,27.04
2022-11-28T00:11:35.402Z,26.96
2022-11-28T00:14:03.496Z,27.06
2022-11-28T00:16:31.660Z,26.88
2022-11-28T00:19:01.216Z,26.89
2022-11-28T00:21:31.208Z,26.74
2022-11-28T00:24:00.359Z,26.76
2022-11-28T00:26:30.020Z,26.63
2022-11-28T00:28:58.708Z,26.92
2022-11-28T00:31:29.445Z,27.03
2022-11-28T00:33:58.003Z,27.00
2022-11-28T00:36:26.331Z,27.01
2022-11-28T00:38:56.240Z,26.77
2022-11-28T00:41:25.683Z,26.84
2022-11-28T00:43:53.971Z,26.92
2022-11-28T00:46:23.519Z,26.98
2022-11-28T00:48:52.735Z,27.14
2022-11-28T00:51:23.101Z,26.93
2022-11-28T00:53:52.643Z,27.29
2022-11-28T00:56:23.968Z,26.73
2022-11-28T00:58:52.640Z,26.98
2022-11-28T01:01:23.498Z,27.00
2022-11-28T01:03:53.106Z,26.79
2022-11-28T01:06:26.188Z,26.87
2022-11-28T01:08:54.776Z,26.91
2022-11-28T01:11:24.484Z,26.76
2022-11-28T01:13:54.778Z,26.86
2022-11-28T01:16:23.210Z,26.85
2022-11-28T01:18:51.191Z,26.98
2022-11-28T01:21:20.058Z,27.01
2022-11-28T01:23:48.108Z,26.89
2022-11-28T01:26:18.712Z,27.08
2022-11-28T01:28:48.127Z,26.78
2022-11-28T01:31:18.918Z,26.82
2022-11-28T01:33:46.891Z,26.68
2022-11-28T01:36:16.054Z,26.90
2022-11-28T01:38:44.224Z,26.73
2022-11-28T01:41:12.774Z,27.04
2022-11-28T01:44:01.352Z,26.86
2022-11-28T01:46:29.717Z,26.69
2022-11-28T01:49:00.603Z,26.95
2022-11-28T01:51:30.983Z,26.86
2022-11-28T01:53:59.975Z,26.75
2022-11-28T01:56:32.523Z,26.70
2022-11-28T01:59:08.315Z,26.78
2022-11-28T02:01:36.454Z,26.70
2022-11-28T02:04:05.355Z,26.82
2022-11-28T02:06:34.304Z,26.70
2022-11-28T02:09:02.188Z,26.59
2022-11-28T02:11:47.421Z,26.80
2022-11-28T02:14:31.595Z,26.69
2022-11-28T02:17:11.675Z,26.72
2022-11-28T02:20:25.448Z,26.69
2022-11-28T02:23:03.962Z,26.63
2022-11-28T02:25:57.444Z,26.89
2022-11-28T02:28:51.287Z,26.79
2022-11-28T02:31:30.119Z,27.03
2022-11-28T02:34:03.555Z,26.97
2022-11-28T02:36:36.191Z,27.02
2022-11-28T02:39:14.390Z,26.75
2022-11-28T02:41:48.827Z,27.04
2022-11-28T02:44:20.032Z,27.26
2022-11-28T02:46:56.780Z,26.92
2022-11-28T02:49:31.029Z,26.90
2022-11-28T02:52:03.798Z,27.04
2022-11-28T02:54:32.738Z,27.25
2022-11-28T02:57:00.664Z,26.88
2022-11-28T02:59:45.771Z,27.09
2022-11-28T03:02:17.120Z,26.98
2022-11-28T03:04:53.543Z,26.96
2022-11-28T03:07:32.279Z,27.01
2022-11-28T03:10:15.651Z,27.09
2022-11-28T03:12:52.935Z,26.95
2022-11-28T03:15:24.371Z,27.04
2022-11-28T03:18:01.785Z,26.94
2022-11-28T03:20:40.887Z,27.23
2022-11-28T03:23:15.780Z,26.93
2022-11-28T03:25:56.459Z,26.94
2022-11-28T03:28:28.767Z,26.75
2022-11-28T03:31:01.504Z,27.12
2022-11-28T03:33:34.524Z,27.23
2022-11-28T03:36:09.510Z,27.15
2022-11-28T03:38:41.483Z,27.06
2022-11-28T03:41:15.706Z,27.27
2022-11-28T03:43:48.669Z,27.12
2022-11-28T03:46:19.491Z,27.25
2022-11-28T03:48:50.786Z,27.21
2022-11-28T03:51:25.525Z,27.20
2022-11-28T03:54:01.983Z,27.09
2022-11-28T03:56:37.708Z,27.06
2022-11-28T03:59:11.500Z,27.20
2022-11-28T04:01:48.991Z,27.06
2022-11-28T04:04:23.840Z,27.18
2022-11-28T04:06:59.312Z,27.10
2022-11-28T04:09:40.720Z,27.29
2022-11-28T04:12:13.791Z,27.00
2022-11-28T04:14:50.179Z,27.02
2022-11-28T04:17:25.160Z,27.17
2022-11-28T04:19:58.948Z,26.95
2022-11-28T04:22:32.593Z,26.95
2022-11-28T04:25:05.825Z,27.12
2022-11-28T04:27:39.127Z,26.91
2022-11-28T04:30:09.251Z,27.24
2022-11-28T04:32:41.543Z,27.18
2022-11-28T04:35:13.646Z,27.18
2022-11-28T04:37:48.784Z,27.31
2022-11-28T04:40:17.366Z,26.98
2022-11-28T04:42:52.963Z,27.26
2022-11-28T04:45:26.443Z,26.96
2022-11-28T04:47:55.135Z,27.25
2022-11-28T04:50:26.404Z,27.11
2022-11-28T04:53:01.569Z,27.13
2022-11-28T04:55:34.670Z,27.01
2022-11-28T04:58:10.236Z,27.34
2022-11-28T05:00:39.685Z,27.18
2022-11-28T05:03:08.595Z,27.29
2022-11-28T05:05:44.902Z,27.25
2022-11-28T05:08:14.491Z,27.22
2022-11-28T05:10:42.860Z,27.09
2022-11-28T05:13:11.155Z,27.23
2022-11-28T05:15:39.183Z,27.10
2022-11-28T05:18:07.309Z,27.19
2022-11-28T05:20:35.681Z,27.25
2022-11-28T05:23:03.558Z,27.09
2022-11-28T05:25:32.952Z,27.11
2022-11-28T05:28:00.839Z,27.03
2022-11-28T05:30:28.733Z,27.24
2022-11-28T05:32:56.688Z,27.43
2022-11-28T05:35:24.544Z,27.22
2022-11-28T05:37:52.457Z,27.14
2022-11-28T05:40:20.488Z,27.25
2022-11-28T05:42:49.759Z,27.45
2022-11-28T05:45:17.689Z,27.53
2022-11-28T05:47:45.816Z,27.11
2022-11-28T05:50:13.702Z,27.08
2022-11-28T05:52:41.656Z,27.12
2022-11-28T05:55:10.419Z,27.56
2022-11-28T05:57:38.373Z,27.55
2022-11-28T06:00:09.438Z,27.58
2022-11-28T06:02:40.088Z,27.53
2022-11-28T06:05:27.708Z,27.39
2022-11-28T06:07:56.761Z,27.45
2022-11-28T06:10:24.803Z,27.58
2022-11-28T06:12:52.715Z,27.68
2022-11-28T06:15:21.960Z,27.61
2022-11-28T06:17:49.852Z,27.49
2022-11-28T06:20:17.851Z,27.29
2022-11-28T06:22:47.791Z,27.25
2022-11-28T06:25:15.895Z,27.75
2022-11-28T06:27:43.786Z,27.77
2022-11-28T06:30:12.041Z,27.60
2022-11-28T06:32:41.298Z,27.23
2022-11-28T06:35:09.742Z,27.49
2022-11-28T06:37:37.642Z,27.51
2022-11-28T06:40:07.002Z,27.47
2022-11-28T06:42:35.941Z,27.75
2022-11-28T06:45:04.213Z,27.43
2022-11-28T06:47:32.331Z,27.48
2022-11-28T06:50:01.688Z,27.31
2022-11-28T06:52:29.560Z,27.62
2022-11-28T06:54:57.433Z,27.67
2022-11-28T06:57:25.335Z,27.38
2022-11-28T06:59:53.259Z,27.55
2022-11-28T07:02:22.329Z,27.62
2022-11-28T07:04:50.204Z,27.65
2022-11-28T07:07:19.577Z,27.65
2022-11-28T07:09:47.675Z,27.54
2022-11-28T07:12:15.864Z,27.63
2022-11-28T07:14:43.724Z,27.74
2022-11-28T07:17:11.620Z,27.80
2022-11-28T07:19:39.926Z,27.95
2022-11-28T07:22:07.928Z,27.59
2022-11-28T07:24:37.148Z,27.88
2022-11-28T07:27:05.226Z,27.88
2022-11-28T07:29:36.483Z,27.89
2022-11-28T07:32:05.813Z,27.99
2022-11-28T07:34:33.834Z,27.96
2022-11-28T07:37:01.744Z,27.95
2022-11-28T07:39:29.730Z,27.88
2022-11-28T07:41:59.017Z,27.65
2022-11-28T07:44:27.142Z,27.66
2022-11-28T07:46:55.123Z,27.95
2022-11-28T07:49:23.101Z,27.94
2022-11-28T07:51:50.979Z,27.67
2022-11-28T07:54:18.963Z,28.06
2022-11-28T07:59:36.340Z,27.85
2022-11-28T08:02:04.372Z,28.10
2022-11-28T08:04:32.404Z,28.30
2022-11-28T08:07:00.309Z,28.18
2022-11-28T08:09:28.311Z,28.31
2022-11-28T08:11:56.384Z,28.25
2022-11-28T08:14:24.500Z,28.09
2022-11-28T08:16:53.863Z,28.26
2022-11-28T08:19:24.769Z,28.10
2022-11-28T08:21:52.900Z,28.33
2022-11-28T08:24:20.767Z,28.16
2022-11-28T08:26:48.696Z,28.15
2022-11-28T08:29:16.610Z,28.11
2022-11-28T08:31:44.654Z,28.06
2022-11-28T08:34:13.958Z,28.08
2022-11-28T08:36:43.388Z,28.04
2022-11-28T08:39:27.799Z,28.32
2022-11-28T08:41:57.711Z,28.15
2022-11-28T08:44:26.183Z,28.02
2022-11-28T08:46:54.536Z,28.14
2022-11-28T08:49:23.876Z,28.08
2022-11-28T08:51:52.047Z,28.08
2022-11-28T08:54:20.860Z,27.99
2022-11-28T08:56:49.103Z,27.92
2022-11-28T08:59:17.138Z,27.69
2022-11-28T09:01:45.123Z,27.96
2022-11-28T09:04:13.174Z,27.83
2022-11-28T09:06:42.533Z,27.67
2022-11-28T09:09:10.465Z,27.80
2022-11-28T09:11:38.934Z,27.73
2022-11-28T09:14:07.517Z,27.56
2022-11-28T09:16:35.592Z,27.63
2022-11-28T09:19:03.968Z,27.51
2022-11-28T09:21:31.843Z,27.45
2022-11-28T09:24:01.145Z,27.50
2022-11-28T09:26:29.952Z,27.80
2022-11-28T09:28:57.893Z,27.69
2022-11-28T09:31:25.940Z,27.49
2022-11-28T09:33:54.787Z,27.52
2022-11-28T09:36:24.516Z,27.48
2022-11-28T09:38:52.478Z,27.42
2022-11-28T09:41:57.351Z,27.59
2022-11-28T09:44:28.280Z,27.94
2022-11-28T09:47:00.291Z,29.51
2022-11-28T09:49:40.716Z,30.16
2022-11-28T09:52:26.071Z,30.67
2022-11-28T09:55:02.100Z,30.83
2022-11-28T09:57:36.989Z,30.99
2022-11-28T10:00:07.231Z,31.83
2022-11-28T10:02:48.635Z,32.65
2022-11-28T10:05:24.428Z,33.28
2022-11-28T10:08:10.761Z,33.41
2022-11-28T10:10:52.669Z,33.52
2022-11-28T10:13:36.560Z,34.13
2022-11-28T10:16:22.131Z,35.48
2022-11-28T10:18:53.306Z,37.17
2022-11-28T10:21:27.280Z,38.50
2022-11-28T10:23:59.513Z,39.73
2022-11-28T10:26:33.917Z,39.80
2022-11-28T10:29:11.467Z,39.10
2022-11-28T10:31:43.282Z,38.26
2022-11-28T10:34:17.738Z,37.48
2022-11-28T10:36:55.500Z,36.85
2022-11-28T10:39:23.711Z,35.95
2022-11-28T10:42:12.494Z,35.24
2022-11-28T10:44:53.222Z,34.84
2022-11-28T10:47:34.776Z,34.39
2022-11-28T10:50:08.185Z,34.15
2022-11-28T10:52:45.170Z,33.49
2022-11-28T10:55:27.134Z,33.20
2022-11-28T10:58:05.696Z,32.70
2022-11-28T11:00:36.857Z,32.22
2022-11-28T11:03:05.946Z,32.28
2022-11-28T11:05:36.191Z,32.10
2022-11-28T11:08:11.908Z,32.11
2022-11-28T11:10:44.172Z,31.73
2022-11-28T11:13:16.831Z,31.65
2022-11-28T11:15:47.539Z,31.61
2022-11-28T11:18:24.783Z,31.28
2022-11-28T11:20:53.427Z,31.34
2022-11-28T11:23:23.064Z,31.44
2022-11-28T11:25:54.191Z,31.49
2022-11-28T11:28:42.636Z,31.31
2022-11-28T11:31:22.276Z,31.19
2022-11-28T11:33:53.126Z,31.09
2022-11-28T11:36:28.207Z,31.04
2022-11-28T11:39:08.922Z,30.84
2022-11-28T11:41:36.925Z,30.79
2022-11-28T11:44:30.284Z,30.94
2022-11-28T11:47:03.856Z,30.48
2022-11-28T11:49:34.167Z,30.45
2022-11-28T11:52:04.380Z,30.42
2022-11-28T11:54:32.591Z,30.40
2022-11-28T11:57:30.909Z,30.43
2022-11-28T11:59:53.909Z,30.13
2022-11-28T12:02:31.254Z,30.33
2022-11-28T12:05:06.430Z,29.93
2022-11-28T12:07:40.409Z,30.33
2022-11-28T12:10:13.947Z,30.06
2022-11-28T12:12:42.451Z,30.43
2022-11-28T12:15:17.143Z,30.65
2022-11-28T12:17:59.041Z,30.53
2022-11-28T12:20:47.006Z,30.68
2022-11-28T12:23:30.291Z,30.67
2022-11-28T12:26:07.232Z,30.51
2022-11-28T12:28:47.328Z,30.57
2022-11-28T12:31:22.390Z,30.52
2022-11-28T12:34:04.792Z,30.43
2022-11-28T12:36:37.811Z,30.32
2022-11-28T12:39:18.701Z,30.09
2022-11-28T12:42:17.915Z,29.82
2022-11-28T12:44:58.478Z,29.98
2022-11-28T12:47:41.424Z,29.72
2022-11-28T12:50:23.805Z,29.79
2022-11-28T12:53:00.683Z,29.71
2022-11-28T12:55:35.337Z,29.59
2022-11-28T12:58:10.177Z,29.28
2022-11-28T13:00:50.548Z,29.25
2022-11-28T13:03:34.283Z,28.99
2022-11-28T13:06:14.835Z,29.05
2022-11-28T13:08:58.935Z,28.83
2022-11-28T13:11:57.219Z,29.09
2022-11-28T13:14:35.340Z,28.96
2022-11-28T13:17:14.427Z,28.76
2022-11-28T13:19:53.247Z,28.75
2022-11-28T13:22:25.782Z,28.61
2022-11-28T13:25:01.858Z,28.53
2022-11-28T13:27:37.919Z,28.53
2022-11-28T13:30:18.023Z,28.61
2022-11-28T13:32:50.495Z,28.84
2022-11-28T13:35:20.724Z,28.22
2022-11-28T13:40:52.290Z,28.19
2022-11-28T13:43:27.146Z,28.23
2022-11-28T13:45:55.867Z,28.39
2022-11-28T13:51:41.725Z,28.04
2022-11-28T13:54:48.823Z,27.77
2022-11-28T13:57:25.011Z,27.64
2022-11-28T14:00:02.331Z,27.36
2022-11-28T14:02:45.960Z,27.54
2022-11-28T14:05:34.877Z,27.52
2022-11-28T14:08:04.136Z,27.71
2022-11-28T14:11:05.834Z,27.50
2022-11-28T14:14:01.005Z,27.65
2022-11-28T14:16:45.437Z,27.39
2022-11-28T14:19:26.556Z,27.33
2022-11-28T14:22:07.859Z,27.37
2022-11-28T14:24:56.559Z,27.38
2022-11-28T14:27:29.260Z,27.37
2022-11-28T14:29:58.878Z,27.08
2022-11-28T14:32:33.394Z,27.15
2022-11-28T14:35:03.437Z,27.17
2022-11-28T14:37:50.446Z,27.14
2022-11-28T14:41:01.318Z,26.99
2022-11-28T14:43:32.812Z,26.94
2022-11-28T14:46:21.590Z,27.02
2022-11-28T14:49:21.304Z,27.02
2022-11-28T14:52:38.610Z,27.00
2022-11-28T14:55:18.702Z,26.68
2022-11-28T14:57:56.659Z,26.79
2022-11-28T15:00:28.875Z,26.83
2022-11-28T15:03:20.723Z,26.76
2022-11-28T15:05:51.814Z,26.75
2022-11-28T15:08:58.859Z,26.84
2022-11-28T15:11:43.747Z,26.89
2022-11-28T15:14:21.881Z,26.73
2022-11-28T15:16:56.489Z,26.83
2022-11-28T15:19:27.762Z,26.79
2022-11-28T15:21:57.038Z,26.81
2022-11-28T15:24:27.799Z,26.83
2022-11-28T15:26:59.565Z,26.76
2022-11-28T15:29:29.720Z,26.78
2022-11-28T15:32:01.242Z,26.84
2022-11-28T15:34:31.843Z,26.77
2022-11-28T15:37:01.708Z,26.61
2022-11-28T15:39:35.071Z,26.70
2022-11-28T15:42:06.641Z,26.71
2022-11-28T15:44:37.609Z,26.70
2022-11-28T15:47:18.558Z,26.67
2022-11-28T15:49:47.067Z,26.58
2022-11-28T15:52:18.556Z,26.51
2022-11-28T15:54:51.492Z,26.41
2022-11-28T15:57:21.207Z,26.40
2022-11-28T15:59:49.251Z,26.48
2022-11-28T16:02:23.668Z,26.36
2022-11-28T16:04:56.110Z,26.45
2022-11-28T16:07:24.350Z,26.53
2022-11-28T16:09:58.035Z,26.31
2022-11-28T16:12:27.139Z,26.38
2022-11-28T16:15:01.440Z,26.33
2022-11-28T16:17:33.597Z,26.48
2022-11-28T16:20:04.593Z,26.36
2022-11-28T16:22:36.696Z,26.31
2022-11-28T16:25:21.334Z,26.31
2022-11-28T16:27:53.130Z,26.55
2022-11-28T16:30:36.879Z,26.31
2022-11-28T16:33:36.074Z,26.43
2022-11-28T16:36:12.557Z,26.58
2022-11-28T16:38:41.370Z,26.56
2022-11-28T16:41:16.205Z,26.54
2022-11-28T16:43:47.189Z,26.35
2022-11-28T16:46:22.113Z,26.62
2022-11-28T16:48:56.472Z,26.86
2022-11-28T16:51:45.208Z,26.55
2022-11-28T16:54:30.099Z,26.95
2022-11-28T16:57:09.360Z,27.00
2022-11-28T16:59:37.624Z,26.88
2022-11-28T17:02:13.385Z,26.88
2022-11-28T17:04:42.908Z,26.78
2022-11-28T17:07:13.843Z,26.87
2022-11-28T17:09:42.778Z,26.79
2022-11-28T17:12:18.139Z,26.75
2022-11-28T17:14:46.255Z,26.90
2022-11-28T17:17:15.535Z,26.88
2022-11-28T17:19:45.753Z,26.83
2022-11-28T17:22:16.583Z,26.77
2022-11-28T17:24:44.905Z,26.68
2022-11-28T17:27:14.226Z,26.75
2022-11-28T17:29:43.032Z,26.69
2022-11-28T17:32:13.441Z,26.80
2022-11-28T17:34:42.104Z,26.71
2022-11-28T17:37:11.637Z,26.80
2022-11-28T17:39:39.677Z,26.75
2022-11-28T17:42:07.573Z,26.75
2022-11-28T17:44:37.627Z,26.79
2022-11-28T17:47:07.260Z,26.78
2022-11-28T17:49:35.589Z,26.75
2022-11-28T17:52:03.683Z,26.73
2022-11-28T17:54:33.008Z,26.69
2022-11-28T17:57:01.539Z,26.70
2022-11-28T17:59:29.508Z,26.60
2022-11-28T18:01:57.769Z,26.71
2022-11-28T18:04:26.289Z,26.66
2022-11-28T18:06:54.237Z,26.72
2022-11-28T18:09:22.256Z,26.71
2022-11-28T18:11:51.787Z,26.70
2022-11-28T18:14:20.113Z,26.66
2022-11-28T18:16:48.798Z,26.55
2022-11-28T18:19:16.856Z,26.45
2022-11-28T18:21:45.077Z,26.47
2022-11-28T18:24:13.389Z,26.50
2022-11-28T18:26:42.343Z,26.29
2022-11-28T18:29:11.617Z,26.41
2022-11-28T18:31:39.663Z,26.38
2022-11-28T18:34:09.555Z,26.29
2022-11-28T18:36:39.506Z,26.34
2022-11-28T18:39:10.398Z,26.44
2022-11-28T18:41:40.219Z,26.45
2022-11-28T18:44:08.999Z,26.69
2022-11-28T18:46:39.900Z,26.70
2022-11-28T18:49:08.354Z,26.79
2022-11-28T18:51:36.941Z,26.59
2022-11-28T18:54:06.794Z,26.70
2022-11-28T18:56:35.811Z,26.63
2022-11-28T18:59:04.244Z,26.56
2022-11-28T19:01:34.042Z,26.53
2022-11-28T19:04:06.962Z,26.67
2022-11-28T19:06:36.589Z,26.65
2022-11-28T19:09:07.082Z,26.46
2022-11-28T19:11:35.067Z,26.55
2022-11-28T19:14:03.603Z,26.54
2022-11-28T19:16:33.209Z,26.37
2022-11-28T19:19:03.548Z,26.36
2022-11-28T19:21:34.243Z,26.33
2022-11-28T19:24:04.111Z,26.40
2022-11-28T19:26:34.059Z,26.33
2022-11-28T19:29:02.902Z,26.42
2022-11-28T19:31:33.182Z,26.48
2022-11-28T19:34:04.310Z,26.40
2022-11-28T19:36:34.150Z,26.43
2022-11-28T19:39:02.500Z,26.42
2022-11-28T19:41:32.331Z,26.38
2022-11-28T19:44:00.674Z,26.06
2022-11-28T19:46:35.058Z,26.31
2022-11-28T19:49:06.675Z,26.34
2022-11-28T19:51:35.322Z,26.31
2022-11-28T19:54:04.182Z,26.08
2022-11-28T19:56:34.378Z,26.27
2022-11-28T19:59:02.998Z,26.35
2022-11-28T20:01:31.099Z,26.21
2022-11-28T20:03:59.844Z,26.09
2022-11-28T20:06:32.279Z,26.20
2022-11-28T20:09:02.180Z,26.30
2022-11-28T20:11:31.968Z,26.23
2022-11-28T20:14:02.300Z,26.29
2022-11-28T20:16:32.099Z,26.10
2022-11-28T20:19:01.424Z,26.19
2022-11-28T20:21:31.961Z,26.31
2022-11-28T20:24:04.795Z,26.28
2022-11-28T20:26:37.879Z,26.26
2022-11-28T20:29:06.846Z,26.40
2022-11-28T20:31:37.477Z,26.46
2022-11-28T20:34:06.720Z,26.93
2022-11-28T20:36:36.408Z,27.25
2022-11-28T20:39:05.633Z,27.20
2022-11-28T20:41:34.535Z,27.41
2022-11-28T20:44:02.989Z,27.21
2022-11-28T20:46:33.595Z,27.46
2022-11-28T20:49:03.268Z,27.42
2022-11-28T20:51:33.105Z,27.62
2022-11-28T20:54:04.759Z,27.34
2022-11-28T20:56:51.691Z,27.57
2022-11-28T20:59:23.257Z,27.12
2022-11-28T21:01:51.217Z,27.33
2022-11-28T21:04:19.903Z,27.55
2022-11-28T21:06:49.263Z,27.36
2022-11-28T21:09:20.469Z,27.44
2022-11-28T21:11:58.455Z,27.33
2022-11-28T21:14:27.723Z,27.33
2022-11-28T21:16:55.822Z,27.33
2022-11-28T21:19:23.882Z,27.27
2022-11-28T21:21:51.892Z,27.32
2022-11-28T21:24:21.192Z,27.33
2022-11-28T21:26:53.337Z,27.39
2022-11-28T21:29:22.330Z,27.66
2022-11-28T21:31:50.318Z,27.74
2022-11-28T21:34:19.396Z,27.82
2022-11-28T21:36:47.774Z,27.93
2022-11-28T21:39:18.784Z,27.61
2022-11-28T21:41:48.391Z,27.72
2022-11-28T21:44:16.467Z,28.13
2022-11-28T21:46:44.442Z,28.02
2022-11-28T21:49:13.665Z,28.02
2022-11-28T21:51:41.764Z,27.93
2022-11-28T21:54:11.157Z,28.02
2022-11-28T21:56:39.186Z,27.90
2022-11-28T21:59:08.659Z,27.99
2022-11-28T22:01:36.733Z,27.92
2022-11-28T22:04:05.102Z,27.78
2022-11-28T22:06:33.784Z,27.97
2022-11-28T22:09:08.731Z,27.89
2022-11-28T22:11:39.485Z,27.71
2022-11-28T22:14:09.259Z,27.58
2022-11-28T22:16:38.001Z,27.83
2022-11-28T22:19:06.514Z,27.72
2022-11-28T22:21:54.491Z,27.58
2022-11-28T22:24:24.401Z,27.67
2022-11-28T22:26:52.416Z,27.63
2022-11-28T22:29:21.771Z,27.60
2022-11-28T22:31:50.118Z,27.64
2022-11-28T22:34:19.367Z,27.51
2022-11-28T22:36:47.402Z,27.67
2022-11-28T22:39:15.480Z,27.50
2022-11-28T22:41:43.527Z,27.68
2022-11-28T22:44:12.676Z,27.40
2022-11-28T22:46:41.947Z,27.46
2022-11-28T22:49:11.799Z,27.67
2022-11-28T22:51:40.765Z,27.42
2022-11-28T22:54:11.587Z,27.43
2022-11-28T22:56:40.789Z,27.51
2022-11-28T22:59:12.739Z,27.38
2022-11-28T23:01:43.513Z,27.57
2022-11-28T23:04:12.109Z,27.36
2022-11-28T23:06:40.692Z,27.50
2022-11-28T23:09:10.593Z,27.55
2022-11-28T23:11:40.590Z,27.41
2022-11-28T23:14:09.348Z,27.51
2022-11-28T23:16:38.770Z,27.53
2022-11-28T23:19:11.904Z,27.40
2022-11-28T23:21:42.319Z,27.54
2022-11-28T23:24:14.033Z,27.40
2022-11-28T23:26:42.159Z,27.45
2022-11-28T23:29:10.442Z,27.35
2022-11-28T23:31:41.852Z,27.52
2022-11-28T23:34:12.176Z,27.17
2022-11-28T23:36:43.116Z,27.34
2022-11-28T23:39:14.042Z,27.33
2022-11-28T23:41:42.683Z,27.55
2022-11-28T23:44:11.828Z,27.38
2022-11-28T23:46:40.729Z,27.13
2022-11-28T23:49:09.159Z,27.16
2022-11-28T23:51:38.601Z,26.86
2022-11-28T23:54:06.615Z,27.30
2022-11-28T23:56:36.288Z,27.31
2022-11-28T23:59:06.330Z,27.22
